Gold Bar, Washington
Current Conditions -  °F | °C
As of 2:33 AM on Saturday 25 Oct 2014 (Local Time) from KPAE Reporting Station
Overcast Overcast  
Wind Chill: 49°   Ceiling: 9500
Heat Index: 49°   Visibility: 10mi
Dew Point: 48°   Wind: 0mph
Humidity: 97%   Direction: NA
Pressure: 29.66"   Gusts: NA
Location:  47.86°N, 121.7°W
Report Text: KPAE 250933Z AUTO 00000KT 10SM FEW002 SCT075 OVC095 09/09 A2966 RMK AO2 RAE00 P0000 T00940089
Loading
Personal Weather Stations






























Interactive Weather Map
Tropical Storm Tracking
New forecast layout! Learn more

10-Day Weather Forecast

Advertisements
Track Severe Weather on mobile